KOTM/OTM METAR and TAF weather

Enter ICAO airport designator
Station Type Date Time Source
KOTM METAR 2021/04/17 01:53 UTC NOAA

KOTM 170153Z AUTO 29005KT 10SM OVC100 09/04 A2998 RMK AO2 SLP153 T00940039


Station Type Date Time Source
KOTM Decoded METAR 2021/04/17 01:53 UTC NOAA

OTTUMWA INDUSTRIAL AIRPORT, IA, United States (KOTM) 41-06N 092-27W 256M
Apr 16, 2021 - 09:53 PM EDT / 2021.04.17 0153 UTC
Wind: from the WNW (290 degrees) at 6 MPH (5 KT):0
Visibility: 10 mile(s):0
Sky conditions: overcast
Temperature: 48.9 F (9.4 C)
Dew Point: 39.0 F (3.9 C)
Relative Humidity: 68%
Pressure (altimeter): 29.98 in. Hg (1015 hPa)
ob: KOTM 170153Z AUTO 29005KT 10SM OVC100 09/04 A2998 RMK AO2 SLP153 T00940039
cycle: 2

Station Type Date Time Source
KOTM TAF 2021/04/16 18:28 UTC NOAA

TAF KOTM 161726Z 1618/1718 02005KT P6SM OVC040
FM170500 32004KT P6SM VCSH OVC060
FM171100 31004KT P6SM BKN035
FM171300 31005KT P6SM BKN025
FM171400 30006KT P6SM BKN045

Example: see airport list